sensor_id;sensor_type;location;lat;lon;timestamp;temperature;humidity
76305;DHT22;65111;50.536;19.204;2023-01-01T00:00:10;12.20;76.40
76305;DHT22;65111;50.536;19.204;2023-01-01T00:02:37;12.20;76.30
76305;DHT22;65111;50.536;19.204;2023-01-01T00:05:04;12.30;76.20
76305;DHT22;65111;50.536;19.204;2023-01-01T00:07:30;12.20;76.10
76305;DHT22;65111;50.536;19.204;2023-01-01T00:09:57;12.20;76.00
76305;DHT22;65111;50.536;19.204;2023-01-01T00:12:41;12.00;76.00
76305;DHT22;65111;50.536;19.204;2023-01-01T00:15:07;12.20;75.80
76305;DHT22;65111;50.536;19.204;2023-01-01T00:17:33;12.20;75.90
76305;DHT22;65111;50.536;19.204;2023-01-01T00:19:59;12.10;76.10
76305;DHT22;65111;50.536;19.204;2023-01-01T00:22:25;12.10;75.90
76305;DHT22;65111;50.536;19.204;2023-01-01T00:24:51;12.00;75.80
76305;DHT22;65111;50.536;19.204;2023-01-01T00:27:17;12.10;75.80
76305;DHT22;65111;50.536;19.204;2023-01-01T00:29:43;12.00;75.50
76305;DHT22;65111;50.536;19.204;2023-01-01T00:32:09;12.20;75.40
76305;DHT22;65111;50.536;19.204;2023-01-01T00:34:37;12.30;75.20
76305;DHT22;65111;50.536;19.204;2023-01-01T00:37:03;12.30;75.20
76305;DHT22;65111;50.536;19.204;2023-01-01T00:39:29;12.20;74.90
76305;DHT22;65111;50.536;19.204;2023-01-01T00:41:55;12.30;74.70
76305;DHT22;65111;50.536;19.204;2023-01-01T00:44:21;12.30;74.50
76305;DHT22;65111;50.536;19.204;2023-01-01T00:46:47;12.40;74.60
76305;DHT22;65111;50.536;19.204;2023-01-01T00:49:12;12.40;74.40
76305;DHT22;65111;50.536;19.204;2023-01-01T00:51:38;12.40;74.00
76305;DHT22;65111;50.536;19.204;2023-01-01T00:54:05;12.60;74.20
76305;DHT22;65111;50.536;19.204;2023-01-01T00:56:31;12.50;73.90
76305;DHT22;65111;50.536;19.204;2023-01-01T00:58:57;12.50;73.90
76305;DHT22;65111;50.536;19.204;2023-01-01T01:01:23;12.50;73.90
76305;DHT22;65111;50.536;19.204;2023-01-01T01:03:49;12.50;73.90
76305;DHT22;65111;50.536;19.204;2023-01-01T01:06:16;12.40;74.00
76305;DHT22;65111;50.536;19.204;2023-01-01T01:08:44;12.30;74.20
76305;DHT22;65111;50.536;19.204;2023-01-01T01:11:14;12.40;74.30
76305;DHT22;65111;50.536;19.204;2023-01-01T01:13:42;12.40;74.40
76305;DHT22;65111;50.536;19.204;2023-01-01T01:16:09;12.30;74.60
76305;DHT22;65111;50.536;19.204;2023-01-01T01:18:36;12.30;74.80
76305;DHT22;65111;50.536;19.204;2023-01-01T01:21:02;12.10;74.80
76305;DHT22;65111;50.536;19.204;2023-01-01T01:23:28;12.20;74.80
76305;DHT22;65111;50.536;19.204;2023-01-01T01:25:54;12.20;74.90
76305;DHT22;65111;50.536;19.204;2023-01-01T01:28:30;12.10;75.00
76305;DHT22;65111;50.536;19.204;2023-01-01T01:30:58;12.20;74.90
76305;DHT22;65111;50.536;19.204;2023-01-01T01:33:25;12.30;74.80
76305;DHT22;65111;50.536;19.204;2023-01-01T01:35:51;12.30;74.60
76305;DHT22;65111;50.536;19.204;2023-01-01T01:38:16;12.40;74.50
76305;DHT22;65111;50.536;19.204;2023-01-01T01:40:43;12.50;74.30
76305;DHT22;65111;50.536;19.204;2023-01-01T01:43:20;12.50;73.90
76305;DHT22;65111;50.536;19.204;2023-01-01T01:45:48;12.60;73.80
76305;DHT22;65111;50.536;19.204;2023-01-01T01:48:15;12.60;73.50
76305;DHT22;65111;50.536;19.204;2023-01-01T01:50:45;12.70;73.30
76305;DHT22;65111;50.536;19.204;2023-01-01T01:53:19;12.70;72.80
76305;DHT22;65111;50.536;19.204;2023-01-01T01:56:14;12.80;72.50
76305;DHT22;65111;50.536;19.204;2023-01-01T01:58:40;12.90;72.10
76305;DHT22;65111;50.536;19.204;2023-01-01T02:01:06;13.00;72.00
76305;DHT22;65111;50.536;19.204;2023-01-01T02:03:42;12.90;72.40
76305;DHT22;65111;50.536;19.204;2023-01-01T02:06:10;13.00;72.00
76305;DHT22;65111;50.536;19.204;2023-01-01T02:08:36;13.00;71.70
76305;DHT22;65111;50.536;19.204;2023-01-01T02:11:02;13.10;71.80
76305;DHT22;65111;50.536;19.204;2023-01-01T02:13:28;13.00;71.30
76305;DHT22;65111;50.536;19.204;2023-01-01T02:29:57;12.90;71.10
76305;DHT22;65111;50.536;19.204;2023-01-01T02:32:34;12.90;71.50
76305;DHT22;65111;50.536;19.204;2023-01-01T02:35:10;12.80;71.30
76305;DHT22;65111;50.536;19.204;2023-01-01T02:37:59;12.80;71.60
76305;DHT22;65111;50.536;19.204;2023-01-01T02:40:28;12.70;72.20
76305;DHT22;65111;50.536;19.204;2023-01-01T02:42:54;12.60;72.30
76305;DHT22;65111;50.536;19.204;2023-01-01T02:45:21;12.60;72.30
76305;DHT22;65111;50.536;19.204;2023-01-01T02:47:47;12.70;71.90
76305;DHT22;65111;50.536;19.204;2023-01-01T02:50:20;12.70;72.60
76305;DHT22;65111;50.536;19.204;2023-01-01T02:53:17;12.60;72.80
76305;DHT22;65111;50.536;19.204;2023-01-01T02:58:19;12.40;73.00
76305;DHT22;65111;50.536;19.204;2023-01-01T03:01:27;12.40;73.20
76305;DHT22;65111;50.536;19.204;2023-01-01T03:04:08;12.20;73.40
76305;DHT22;65111;50.536;19.204;2023-01-01T03:06:54;12.30;73.60
76305;DHT22;65111;50.536;19.204;2023-01-01T03:09:47;12.30;73.70
76305;DHT22;65111;50.536;19.204;2023-01-01T03:12:23;12.20;73.90
76305;DHT22;65111;50.536;19.204;2023-01-01T03:15:27;12.00;74.20
76305;DHT22;65111;50.536;19.204;2023-01-01T03:20:31;12.00;74.20
76305;DHT22;65111;50.536;19.204;2023-01-01T03:23:04;12.00;74.20
76305;DHT22;65111;50.536;19.204;2023-01-01T03:25:39;11.90;74.30
76305;DHT22;65111;50.536;19.204;2023-01-01T03:28:15;11.90;74.20
76305;DHT22;65111;50.536;19.204;2023-01-01T03:30:44;12.00;74.40
76305;DHT22;65111;50.536;19.204;2023-01-01T03:33:17;12.00;74.50
76305;DHT22;65111;50.536;19.204;2023-01-01T03:35:50;12.00;74.30
76305;DHT22;65111;50.536;19.204;2023-01-01T03:38:28;12.10;74.00
76305;DHT22;65111;50.536;19.204;2023-01-01T03:41:03;12.30;73.60
76305;DHT22;65111;50.536;19.204;2023-01-01T03:43:43;12.40;73.30
76305;DHT22;65111;50.536;19.204;2023-01-01T03:46:16;12.50;73.10
76305;DHT22;65111;50.536;19.204;2023-01-01T03:48:44;12.70;71.60
76305;DHT22;65111;50.536;19.204;2023-01-01T03:54:19;12.80;70.80
76305;DHT22;65111;50.536;19.204;2023-01-01T03:59:48;13.00;69.90
76305;DHT22;65111;50.536;19.204;2023-01-01T04:02:18;13.20;69.70
76305;DHT22;65111;50.536;19.204;2023-01-01T04:04:48;13.20;69.30
76305;DHT22;65111;50.536;19.204;2023-01-01T04:07:14;13.30;68.90
76305;DHT22;65111;50.536;19.204;2023-01-01T04:09:45;13.40;68.80
76305;DHT22;65111;50.536;19.204;2023-01-01T04:12:12;13.40;68.60
76305;DHT22;65111;50.536;19.204;2023-01-01T04:14:41;13.40;68.60
76305;DHT22;65111;50.536;19.204;2023-01-01T04:17:09;13.50;68.70
76305;DHT22;65111;50.536;19.204;2023-01-01T04:19:35;13.30;68.90
76305;DHT22;65111;50.536;19.204;2023-01-01T04:22:01;13.40;68.80
76305;DHT22;65111;50.536;19.204;2023-01-01T04:24:29;13.30;69.00
76305;DHT22;65111;50.536;19.204;2023-01-01T04:26:55;13.30;68.90
76305;DHT22;65111;50.536;19.204;2023-01-01T04:29:21;13.30;69.10
76305;DHT22;65111;50.536;19.204;2023-01-01T04:31:48;13.20;69.10
76305;DHT22;65111;50.536;19.204;2023-01-01T04:34:15;13.30;69.10
76305;DHT22;65111;50.536;19.204;2023-01-01T04:36:41;13.30;69.20
76305;DHT22;65111;50.536;19.204;2023-01-01T04:39:07;13.20;69.00
76305;DHT22;65111;50.536;19.204;2023-01-01T04:41:33;13.30;69.10
76305;DHT22;65111;50.536;19.204;2023-01-01T04:43:59;13.20;69.30
76305;DHT22;65111;50.536;19.204;2023-01-01T04:46:25;13.20;69.20
76305;DHT22;65111;50.536;19.204;2023-01-01T04:48:52;13.20;69.10
76305;DHT22;65111;50.536;19.204;2023-01-01T04:51:19;13.20;69.10
76305;DHT22;65111;50.536;19.204;2023-01-01T04:53:45;13.20;69.20
76305;DHT22;65111;50.536;19.204;2023-01-01T04:56:14;13.10;69.20
76305;DHT22;65111;50.536;19.204;2023-01-01T04:58:41;13.10;69.40
76305;DHT22;65111;50.536;19.204;2023-01-01T05:01:17;13.00;69.50
76305;DHT22;65111;50.536;19.204;2023-01-01T05:03:43;12.90;69.70
76305;DHT22;65111;50.536;19.204;2023-01-01T05:06:11;12.80;70.10
76305;DHT22;65111;50.536;19.204;2023-01-01T05:08:39;12.80;70.30
76305;DHT22;65111;50.536;19.204;2023-01-01T05:11:11;12.60;71.00
76305;DHT22;65111;50.536;19.204;2023-01-01T05:13:42;12.40;71.50
76305;DHT22;65111;50.536;19.204;2023-01-01T05:16:11;12.20;71.70
76305;DHT22;65111;50.536;19.204;2023-01-01T05:18:37;12.20;72.00
76305;DHT22;65111;50.536;19.204;2023-01-01T05:21:11;12.20;72.00
76305;DHT22;65111;50.536;19.204;2023-01-01T05:23:37;12.20;71.40
76305;DHT22;65111;50.536;19.204;2023-01-01T05:26:12;12.40;71.30
76305;DHT22;65111;50.536;19.204;2023-01-01T05:28:38;12.50;71.00
76305;DHT22;65111;50.536;19.204;2023-01-01T05:31:13;12.40;70.80
76305;DHT22;65111;50.536;19.204;2023-01-01T05:33:40;12.60;70.80
76305;DHT22;65111;50.536;19.204;2023-01-01T05:36:07;12.60;70.60
76305;DHT22;65111;50.536;19.204;2023-01-01T05:38:34;12.60;70.70
76305;DHT22;65111;50.536;19.204;2023-01-01T05:41:07;12.60;70.40
76305;DHT22;65111;50.536;19.204;2023-01-01T05:43:34;12.50;70.40
76305;DHT22;65111;50.536;19.204;2023-01-01T05:46:07;12.60;70.50
76305;DHT22;65111;50.536;19.204;2023-01-01T05:48:34;12.60;70.20
76305;DHT22;65111;50.536;19.204;2023-01-01T05:51:05;12.60;70.10
76305;DHT22;65111;50.536;19.204;2023-01-01T05:53:32;12.70;69.40
76305;DHT22;65111;50.536;19.204;2023-01-01T05:55:58;12.60;70.10
76305;DHT22;65111;50.536;19.204;2023-01-01T05:58:25;12.70;69.40
76305;DHT22;65111;50.536;19.204;2023-01-01T06:00:52;12.60;70.10
76305;DHT22;65111;50.536;19.204;2023-01-01T06:03:18;12.60;70.20
76305;DHT22;65111;50.536;19.204;2023-01-01T06:05:44;12.60;70.40
76305;DHT22;65111;50.536;19.204;2023-01-01T06:08:10;12.50;70.60
76305;DHT22;65111;50.536;19.204;2023-01-01T06:10:36;12.40;70.60
76305;DHT22;65111;50.536;19.204;2023-01-01T06:13:03;12.50;70.90
76305;DHT22;65111;50.536;19.204;2023-01-01T06:15:29;12.40;70.90
76305;DHT22;65111;50.536;19.204;2023-01-01T06:17:56;12.30;71.20
76305;DHT22;65111;50.536;19.204;2023-01-01T06:20:23;12.30;71.50
76305;DHT22;65111;50.536;19.204;2023-01-01T06:22:48;12.30;71.70
76305;DHT22;65111;50.536;19.204;2023-01-01T06:25:15;12.30;71.70
76305;DHT22;65111;50.536;19.204;2023-01-01T06:27:40;12.30;71.50
76305;DHT22;65111;50.536;19.204;2023-01-01T06:30:07;12.20;71.80
76305;DHT22;65111;50.536;19.204;2023-01-01T06:32:34;12.20;71.60
76305;DHT22;65111;50.536;19.204;2023-01-01T06:35:00;12.20;71.80
76305;DHT22;65111;50.536;19.204;2023-01-01T06:37:27;12.20;71.90
76305;DHT22;65111;50.536;19.204;2023-01-01T06:39:53;12.10;72.30
76305;DHT22;65111;50.536;19.204;2023-01-01T06:42:19;12.00;72.20
76305;DHT22;65111;50.536;19.204;2023-01-01T06:44:45;12.00;72.40
76305;DHT22;65111;50.536;19.204;2023-01-01T06:47:11;11.90;72.60
76305;DHT22;65111;50.536;19.204;2023-01-01T06:49:37;11.70;72.90
76305;DHT22;65111;50.536;19.204;2023-01-01T06:52:03;11.90;73.00
76305;DHT22;65111;50.536;19.204;2023-01-01T06:54:29;11.80;73.30
76305;DHT22;65111;50.536;19.204;2023-01-01T06:56:55;11.60;73.40
76305;DHT22;65111;50.536;19.204;2023-01-01T06:59:21;11.70;73.40
76305;DHT22;65111;50.536;19.204;2023-01-01T07:01:47;11.60;73.60
76305;DHT22;65111;50.536;19.204;2023-01-01T07:04:14;11.60;73.80
76305;DHT22;65111;50.536;19.204;2023-01-01T07:06:41;11.50;74.00
76305;DHT22;65111;50.536;19.204;2023-01-01T07:09:08;11.50;74.00
76305;DHT22;65111;50.536;19.204;2023-01-01T07:11:34;11.40;74.20
76305;DHT22;65111;50.536;19.204;2023-01-01T07:14:01;11.40;74.50
76305;DHT22;65111;50.536;19.204;2023-01-01T07:16:27;11.40;74.50
76305;DHT22;65111;50.536;19.204;2023-01-01T07:18:53;11.40;74.40
76305;DHT22;65111;50.536;19.204;2023-01-01T07:21:35;11.50;74.50
76305;DHT22;65111;50.536;19.204;2023-01-01T07:24:04;11.40;74.60
76305;DHT22;65111;50.536;19.204;2023-01-01T07:26:31;11.50;74.70
76305;DHT22;65111;50.536;19.204;2023-01-01T07:28:59;11.60;74.80
76305;DHT22;65111;50.536;19.204;2023-01-01T07:31:25;11.50;74.70
76305;DHT22;65111;50.536;19.204;2023-01-01T07:33:51;11.50;74.70
76305;DHT22;65111;50.536;19.204;2023-01-01T07:36:17;11.60;74.60
76305;DHT22;65111;50.536;19.204;2023-01-01T07:38:43;11.70;74.60
76305;DHT22;65111;50.536;19.204;2023-01-01T07:41:09;11.60;74.60
76305;DHT22;65111;50.536;19.204;2023-01-01T07:43:35;11.80;74.40
76305;DHT22;65111;50.536;19.204;2023-01-01T07:46:01;11.90;74.30
76305;DHT22;65111;50.536;19.204;2023-01-01T07:48:27;11.90;74.20
76305;DHT22;65111;50.536;19.204;2023-01-01T07:50:54;11.90;73.90
76305;DHT22;65111;50.536;19.204;2023-01-01T07:53:20;11.90;74.00
76305;DHT22;65111;50.536;19.204;2023-01-01T07:55:46;11.90;74.10
76305;DHT22;65111;50.536;19.204;2023-01-01T07:58:12;12.00;73.80
76305;DHT22;65111;50.536;19.204;2023-01-01T08:00:38;12.10;73.70
76305;DHT22;65111;50.536;19.204;2023-01-01T08:03:05;12.20;73.60
76305;DHT22;65111;50.536;19.204;2023-01-01T08:05:31;12.20;73.50
76305;DHT22;65111;50.536;19.204;2023-01-01T08:07:59;12.40;73.10
76305;DHT22;65111;50.536;19.204;2023-01-01T08:10:25;12.30;73.10
76305;DHT22;65111;50.536;19.204;2023-01-01T08:12:51;12.50;72.80
76305;DHT22;65111;50.536;19.204;2023-01-01T08:15:23;12.40;72.60
76305;DHT22;65111;50.536;19.204;2023-01-01T08:17:49;12.60;72.80
76305;DHT22;65111;50.536;19.204;2023-01-01T08:20:15;12.60;72.20
76305;DHT22;65111;50.536;19.204;2023-01-01T08:22:41;12.70;71.70
76305;DHT22;65111;50.536;19.204;2023-01-01T08:25:07;12.70;71.40
76305;DHT22;65111;50.536;19.204;2023-01-01T08:27:33;12.80;71.30
76305;DHT22;65111;50.536;19.204;2023-01-01T08:29:59;13.00;71.20
76305;DHT22;65111;50.536;19.204;2023-01-01T08:32:25;13.10;70.60
76305;DHT22;65111;50.536;19.204;2023-01-01T08:34:51;13.20;70.20
76305;DHT22;65111;50.536;19.204;2023-01-01T08:37:19;13.20;70.10
76305;DHT22;65111;50.536;19.204;2023-01-01T08:39:48;13.30;69.40
76305;DHT22;65111;50.536;19.204;2023-01-01T08:42:14;13.20;69.40
76305;DHT22;65111;50.536;19.204;2023-01-01T08:44:40;13.30;69.30
76305;DHT22;65111;50.536;19.204;2023-01-01T08:47:18;13.40;69.20
76305;DHT22;65111;50.536;19.204;2023-01-01T08:49:44;13.50;69.10
76305;DHT22;65111;50.536;19.204;2023-01-01T08:52:10;13.70;68.60
76305;DHT22;65111;50.536;19.204;2023-01-01T08:54:36;14.10;67.40
76305;DHT22;65111;50.536;19.204;2023-01-01T08:57:02;14.60;66.00
76305;DHT22;65111;50.536;19.204;2023-01-01T08:59:28;15.10;64.50
76305;DHT22;65111;50.536;19.204;2023-01-01T09:01:57;15.60;63.30
76305;DHT22;65111;50.536;19.204;2023-01-01T09:04:24;16.10;62.00
76305;DHT22;65111;50.536;19.204;2023-01-01T09:06:51;16.90;60.80
76305;DHT22;65111;50.536;19.204;2023-01-01T09:09:18;17.70;57.80
76305;DHT22;65111;50.536;19.204;2023-01-01T09:11:57;18.70;56.10
76305;DHT22;65111;50.536;19.204;2023-01-01T09:14:32;19.80;53.40
76305;DHT22;65111;50.536;19.204;2023-01-01T09:16:58;20.90;50.70
76305;DHT22;65111;50.536;19.204;2023-01-01T09:19:24;22.10;49.40
76305;DHT22;65111;50.536;19.204;2023-01-01T09:21:51;23.10;47.50
76305;DHT22;65111;50.536;19.204;2023-01-01T09:24:17;24.20;45.40
76305;DHT22;65111;50.536;19.204;2023-01-01T09:26:44;24.80;44.40
76305;DHT22;65111;50.536;19.204;2023-01-01T09:29:10;25.10;42.80
76305;DHT22;65111;50.536;19.204;2023-01-01T09:31:36;25.30;42.30
76305;DHT22;65111;50.536;19.204;2023-01-01T09:34:02;25.50;41.40
76305;DHT22;65111;50.536;19.204;2023-01-01T09:36:30;25.70;41.40
76305;DHT22;65111;50.536;19.204;2023-01-01T09:39:01;26.00;41.30
76305;DHT22;65111;50.536;19.204;2023-01-01T09:44:45;27.00;39.60
76305;DHT22;65111;50.536;19.204;2023-01-01T09:47:25;27.40;39.10
76305;DHT22;65111;50.536;19.204;2023-01-01T09:49:58;27.70;39.10
76305;DHT22;65111;50.536;19.204;2023-01-01T09:52:36;28.10;38.60
76305;DHT22;65111;50.536;19.204;2023-01-01T09:55:14;28.40;38.40
76305;DHT22;65111;50.536;19.204;2023-01-01T09:57:42;28.80;37.70
76305;DHT22;65111;50.536;19.204;2023-01-01T10:00:14;29.10;37.60
76305;DHT22;65111;50.536;19.204;2023-01-01T10:05:55;29.30;37.30
76305;DHT22;65111;50.536;19.204;2023-01-01T10:08:40;29.30;37.60
76305;DHT22;65111;50.536;19.204;2023-01-01T10:14:16;28.60;37.60
76305;DHT22;65111;50.536;19.204;2023-01-01T10:16:46;27.90;38.30
76305;DHT22;65111;50.536;19.204;2023-01-01T10:21:46;27.50;38.60
76305;DHT22;65111;50.536;19.204;2023-01-01T10:27:04;27.20;38.60
76305;DHT22;65111;50.536;19.204;2023-01-01T10:29:49;27.20;38.70
76305;DHT22;65111;50.536;19.204;2023-01-01T10:32:35;27.50;38.30
76305;DHT22;65111;50.536;19.204;2023-01-01T10:35:10;27.70;37.80
76305;DHT22;65111;50.536;19.204;2023-01-01T10:37:38;28.00;37.70
76305;DHT22;65111;50.536;19.204;2023-01-01T10:40:14;28.10;37.80
76305;DHT22;65111;50.536;19.204;2023-01-01T10:42:45;28.00;37.90
76305;DHT22;65111;50.536;19.204;2023-01-01T10:45:14;27.50;37.70
76305;DHT22;65111;50.536;19.204;2023-01-01T10:48:14;26.80;38.20
76305;DHT22;65111;50.536;19.204;2023-01-01T10:53:35;25.10;39.60
76305;DHT22;65111;50.536;19.204;2023-01-01T10:56:11;24.30;40.90
76305;DHT22;65111;50.536;19.204;2023-01-01T10:58:39;23.80;41.60
76305;DHT22;65111;50.536;19.204;2023-01-01T11:01:09;23.40;42.00
76305;DHT22;65111;50.536;19.204;2023-01-01T11:03:37;23.00;42.60
76305;DHT22;65111;50.536;19.204;2023-01-01T11:06:23;22.50;43.20
76305;DHT22;65111;50.536;19.204;2023-01-01T11:08:55;22.20;43.70
76305;DHT22;65111;50.536;19.204;2023-01-01T11:11:43;22.00;44.00
76305;DHT22;65111;50.536;19.204;2023-01-01T11:16:57;22.40;43.90
76305;DHT22;65111;50.536;19.204;2023-01-01T11:21:53;23.50;42.50
76305;DHT22;65111;50.536;19.204;2023-01-01T11:24:22;23.90;42.00
76305;DHT22;65111;50.536;19.204;2023-01-01T11:26:50;24.20;41.70
76305;DHT22;65111;50.536;19.204;2023-01-01T11:31:47;23.90;41.70
76305;DHT22;65111;50.536;19.204;2023-01-01T11:34:38;23.10;42.50
76305;DHT22;65111;50.536;19.204;2023-01-01T11:37:29;22.30;43.80
76305;DHT22;65111;50.536;19.204;2023-01-01T11:39:56;21.70;44.50
76305;DHT22;65111;50.536;19.204;2023-01-01T11:42:26;21.20;45.40
76305;DHT22;65111;50.536;19.204;2023-01-01T11:45:19;21.40;45.80
76305;DHT22;65111;50.536;19.204;2023-01-01T11:47:53;22.00;44.90
76305;DHT22;65111;50.536;19.204;2023-01-01T11:58:58;24.80;41.30
76305;DHT22;65111;50.536;19.204;2023-01-01T12:10:03;26.00;39.30
76305;DHT22;65111;50.536;19.204;2023-01-01T12:15:17;25.50;39.90
76305;DHT22;65111;50.536;19.204;2023-01-01T12:17:50;25.10;40.20
76305;DHT22;65111;50.536;19.204;2023-01-01T12:20:25;24.70;40.80
76305;DHT22;65111;50.536;19.204;2023-01-01T12:22:57;24.40;41.10
76305;DHT22;65111;50.536;19.204;2023-01-01T12:25:37;24.10;41.70
76305;DHT22;65111;50.536;19.204;2023-01-01T12:28:39;23.70;41.90
76305;DHT22;65111;50.536;19.204;2023-01-01T12:31:18;23.30;42.50
76305;DHT22;65111;50.536;19.204;2023-01-01T12:34:03;22.90;42.90
76305;DHT22;65111;50.536;19.204;2023-01-01T12:45:52;21.40;45.00
76305;DHT22;65111;50.536;19.204;2023-01-01T12:48:45;21.20;45.30
76305;DHT22;65111;50.536;19.204;2023-01-01T12:51:41;20.80;46.50
76305;DHT22;65111;50.536;19.204;2023-01-01T12:59:52;20.30;47.80
76305;DHT22;65111;50.536;19.204;2023-01-01T13:04:46;19.80;48.60
76305;DHT22;65111;50.536;19.204;2023-01-01T13:07:22;19.40;49.10
76305;DHT22;65111;50.536;19.204;2023-01-01T13:09:51;19.20;49.70
76305;DHT22;65111;50.536;19.204;2023-01-01T13:12:20;19.30;50.00
76305;DHT22;65111;50.536;19.204;2023-01-01T13:14:48;19.30;50.00
76305;DHT22;65111;50.536;19.204;2023-01-01T13:17:24;19.30;49.90
76305;DHT22;65111;50.536;19.204;2023-01-01T13:19:58;19.20;50.20
76305;DHT22;65111;50.536;19.204;2023-01-01T13:22:40;19.10;50.60
76305;DHT22;65111;50.536;19.204;2023-01-01T13:33:19;18.30;52.30
76305;DHT22;65111;50.536;19.204;2023-01-01T13:38:56;17.80;53.50
76305;DHT22;65111;50.536;19.204;2023-01-01T14:00:21;15.20;61.20
76305;DHT22;65111;50.536;19.204;2023-01-01T14:02:52;15.00;61.70
76305;DHT22;65111;50.536;19.204;2023-01-01T14:05:48;14.80;62.20
76305;DHT22;65111;50.536;19.204;2023-01-01T14:08:34;14.70;62.80
76305;DHT22;65111;50.536;19.204;2023-01-01T14:11:02;14.50;63.70
76305;DHT22;65111;50.536;19.204;2023-01-01T14:13:41;14.30;63.60
76305;DHT22;65111;50.536;19.204;2023-01-01T14:16:09;14.20;64.30
76305;DHT22;65111;50.536;19.204;2023-01-01T14:18:50;14.10;64.70
76305;DHT22;65111;50.536;19.204;2023-01-01T14:21:23;14.00;65.00
76305;DHT22;65111;50.536;19.204;2023-01-01T14:23:59;13.80;65.50
76305;DHT22;65111;50.536;19.204;2023-01-01T14:26:27;13.80;66.10
76305;DHT22;65111;50.536;19.204;2023-01-01T14:28:55;13.60;66.50
76305;DHT22;65111;50.536;19.204;2023-01-01T14:31:29;13.60;66.70
76305;DHT22;65111;50.536;19.204;2023-01-01T14:33:55;13.50;67.10
76305;DHT22;65111;50.536;19.204;2023-01-01T14:36:24;13.40;67.20
76305;DHT22;65111;50.536;19.204;2023-01-01T14:38:55;13.30;67.30
76305;DHT22;65111;50.536;19.204;2023-01-01T14:41:38;13.20;67.90
76305;DHT22;65111;50.536;19.204;2023-01-01T14:44:12;13.20;68.10
76305;DHT22;65111;50.536;19.204;2023-01-01T14:46:40;13.00;68.10
76305;DHT22;65111;50.536;19.204;2023-01-01T14:49:11;12.90;68.70
76305;DHT22;65111;50.536;19.204;2023-01-01T14:51:43;12.90;68.70
76305;DHT22;65111;50.536;19.204;2023-01-01T14:54:17;12.70;69.20
76305;DHT22;65111;50.536;19.204;2023-01-01T14:56:49;12.70;70.10
76305;DHT22;65111;50.536;19.204;2023-01-01T14:59:34;12.60;70.00
76305;DHT22;65111;50.536;19.204;2023-01-01T15:02:08;12.50;70.30
76305;DHT22;65111;50.536;19.204;2023-01-01T15:04:37;12.40;71.40
76305;DHT22;65111;50.536;19.204;2023-01-01T15:07:04;12.20;71.30
76305;DHT22;65111;50.536;19.204;2023-01-01T15:09:31;12.20;71.30
76305;DHT22;65111;50.536;19.204;2023-01-01T15:11:58;12.20;71.70
76305;DHT22;65111;50.536;19.204;2023-01-01T15:14:41;12.10;71.70
76305;DHT22;65111;50.536;19.204;2023-01-01T15:17:12;12.00;72.00
76305;DHT22;65111;50.536;19.204;2023-01-01T15:19:41;11.90;72.50
76305;DHT22;65111;50.536;19.204;2023-01-01T15:22:25;12.00;73.20
76305;DHT22;65111;50.536;19.204;2023-01-01T15:24:52;12.00;73.10
76305;DHT22;65111;50.536;19.204;2023-01-01T15:27:26;12.00;72.90
76305;DHT22;65111;50.536;19.204;2023-01-01T15:29:53;12.00;72.80
76305;DHT22;65111;50.536;19.204;2023-01-01T15:32:33;12.10;72.60
76305;DHT22;65111;50.536;19.204;2023-01-01T15:35:03;11.90;72.80
76305;DHT22;65111;50.536;19.204;2023-01-01T15:37:45;11.90;73.10
76305;DHT22;65111;50.536;19.204;2023-01-01T15:42:46;11.90;73.10
76305;DHT22;65111;50.536;19.204;2023-01-01T15:45:35;11.70;73.20
76305;DHT22;65111;50.536;19.204;2023-01-01T15:50:39;11.80;73.60
76305;DHT22;65111;50.536;19.204;2023-01-01T15:53:26;11.80;73.80
76305;DHT22;65111;50.536;19.204;2023-01-01T15:55:56;11.90;73.80
76305;DHT22;65111;50.536;19.204;2023-01-01T15:58:33;11.70;73.60
76305;DHT22;65111;50.536;19.204;2023-01-01T16:01:05;11.80;73.40
76305;DHT22;65111;50.536;19.204;2023-01-01T16:03:33;11.90;73.70
76305;DHT22;65111;50.536;19.204;2023-01-01T16:06:00;11.80;73.50
76305;DHT22;65111;50.536;19.204;2023-01-01T16:08:26;11.70;73.70
76305;DHT22;65111;50.536;19.204;2023-01-01T16:10:52;11.70;73.90
76305;DHT22;65111;50.536;19.204;2023-01-01T16:13:18;11.80;74.00
76305;DHT22;65111;50.536;19.204;2023-01-01T16:16:25;11.60;74.00
76305;DHT22;65111;50.536;19.204;2023-01-01T16:18:53;11.60;73.80
76305;DHT22;65111;50.536;19.204;2023-01-01T16:21:22;11.70;74.00
76305;DHT22;65111;50.536;19.204;2023-01-01T16:23:49;11.50;74.30
76305;DHT22;65111;50.536;19.204;2023-01-01T16:26:15;11.40;74.60
76305;DHT22;65111;50.536;19.204;2023-01-01T16:28:41;11.40;74.80
76305;DHT22;65111;50.536;19.204;2023-01-01T16:31:15;11.50;74.80
76305;DHT22;65111;50.536;19.204;2023-01-01T16:33:44;11.40;74.70
76305;DHT22;65111;50.536;19.204;2023-01-01T16:36:12;11.50;74.80
76305;DHT22;65111;50.536;19.204;2023-01-01T16:38:38;11.40;75.00
76305;DHT22;65111;50.536;19.204;2023-01-01T16:41:04;11.40;75.10
76305;DHT22;65111;50.536;19.204;2023-01-01T16:43:31;11.40;75.50
76305;DHT22;65111;50.536;19.204;2023-01-01T16:45:56;11.40;75.40
76305;DHT22;65111;50.536;19.204;2023-01-01T16:48:23;11.40;75.30
76305;DHT22;65111;50.536;19.204;2023-01-01T16:50:52;11.50;75.20
76305;DHT22;65111;50.536;19.204;2023-01-01T16:53:17;11.60;75.10
76305;DHT22;65111;50.536;19.204;2023-01-01T16:55:44;11.50;75.30
76305;DHT22;65111;50.536;19.204;2023-01-01T16:58:10;11.50;75.30
76305;DHT22;65111;50.536;19.204;2023-01-01T17:00:36;11.50;75.40
76305;DHT22;65111;50.536;19.204;2023-01-01T17:03:03;11.40;75.50
76305;DHT22;65111;50.536;19.204;2023-01-01T17:05:29;11.50;75.50
76305;DHT22;65111;50.536;19.204;2023-01-01T17:07:55;11.50;75.70
76305;DHT22;65111;50.536;19.204;2023-01-01T17:10:21;11.60;75.80
76305;DHT22;65111;50.536;19.204;2023-01-01T17:12:47;11.50;75.60
76305;DHT22;65111;50.536;19.204;2023-01-01T17:15:13;11.60;75.70
76305;DHT22;65111;50.536;19.204;2023-01-01T17:17:39;11.50;75.50
76305;DHT22;65111;50.536;19.204;2023-01-01T17:20:05;11.60;75.70
76305;DHT22;65111;50.536;19.204;2023-01-01T17:22:31;11.50;75.90
76305;DHT22;65111;50.536;19.204;2023-01-01T17:24:57;11.50;76.00
76305;DHT22;65111;50.536;19.204;2023-01-01T17:27:23;11.40;76.10
76305;DHT22;65111;50.536;19.204;2023-01-01T17:29:49;11.30;76.20
76305;DHT22;65111;50.536;19.204;2023-01-01T17:32:16;11.40;76.30
76305;DHT22;65111;50.536;19.204;2023-01-01T17:34:42;11.40;76.60
76305;DHT22;65111;50.536;19.204;2023-01-01T17:37:08;11.40;76.50